Lowell, Massachusetts
Current Conditions -  °F | °C
As of 10:54 AM on Saturday 22 Nov 2014 (Local Time) from KLWM Reporting Station
Clear Clear  
Wind Chill: 24°   Ceiling: Unl
Heat Index: 33°   Visibility: 10mi
Dew Point: 12°   Wind: 12mph
Humidity: 42%   Direction: 220°SW
Pressure: 30.3"   Gusts: 22mph
Location:  42.65°N, 71.31°W
Report Text: KLWM 221554Z 22010G19KT 10SM CLR 01/M11 A3030 RMK AO2 SLP262 T00061111
Loading
Personal Weather Stations






























Interactive Weather Map New forecast layout! Learn more

10-Day Weather Forecast

Advertisements
Track Severe Weather on mobile